Time;durP1;ratioP1;P1;durP2;ratioP2;P2;SDS_P1;SDS_P2;PMS_P1;PMS_P2;Temp;Humidity;BMP_temperature;BMP_pressure;BME280_temperature;BME280_humidity;BME280_pressure;Samples;Min_cycle;Max_cycle;Signal;HPM_P1;HPM_P2
2023/08/22 00:00:00;;;;;;;8.48;7.55;;;25.90;67.20;;;;;;5013846;28;20022;-65
2023/08/22 00:02:27;;;;;;;6.78;6.07;;;25.90;66.80;;;;;;5006036;28;20450;-65
2023/08/22 00:04:53;;;;;;;9.70;7.97;;;25.90;67.10;;;;;;5007053;28;20034;-61
2023/08/22 00:07:18;;;;;;;7.85;7.05;;;25.80;66.80;;;;;;5011537;28;20064;-65
2023/08/22 00:09:44;;;;;;;6.68;6.07;;;25.80;67.20;;;;;;5000932;28;20049;-64
2023/08/22 00:12:09;;;;;;;8.35;7.55;;;25.80;67.40;;;;;;5001545;28;20375;-65
2023/08/22 00:14:35;;;;;;;7.05;6.35;;;25.80;67.30;;;;;;4999224;28;20073;-61
2023/08/22 00:17:01;;;;;;;8.50;7.47;;;25.80;67.60;;;;;;5003913;28;20065;-57
2023/08/22 00:19:26;;;;;;;7.32;6.63;;;25.80;67.50;;;;;;4990582;28;20042;-63
2023/08/22 00:21:52;;;;;;;8.25;7.35;;;25.80;67.30;;;;;;4974798;28;20034;-59
2023/08/22 00:24:18;;;;;;;11.20;7.13;;;25.80;67.50;;;;;;4996390;28;20021;-65
2023/08/22 00:26:43;;;;;;;8.38;7.03;;;25.80;67.50;;;;;;4994103;28;20048;-65
2023/08/22 00:29:09;;;;;;;8.20;6.97;;;25.80;67.50;;;;;;5000401;28;20026;-64
2023/08/22 00:31:34;;;;;;;9.25;6.43;;;25.70;67.40;;;;;;5005915;28;20030;-64
2023/08/22 00:34:01;;;;;;;9.40;7.05;;;25.80;67.50;;;;;;4996836;28;20026;-62
2023/08/22 00:36:28;;;;;;;7.97;6.90;;;25.80;67.50;;;;;;5004291;28;20041;-61
2023/08/22 00:38:53;;;;;;;7.25;6.47;;;25.80;68.10;;;;;;4995702;28;20481;-57
2023/08/22 00:41:19;;;;;;;7.28;6.68;;;25.90;67.70;;;;;;4971125;28;20039;-57
2023/08/22 00:43:46;;;;;;;7.90;6.50;;;25.90;67.80;;;;;;5006276;28;20121;-59
2023/08/22 00:46:11;;;;;;;8.00;6.05;;;25.90;67.70;;;;;;5007533;28;20030;-65
2023/08/22 00:48:37;;;;;;;8.45;6.40;;;25.90;67.80;;;;;;5007081;28;20263;-65
2023/08/22 00:51:04;;;;;;;7.68;6.97;;;25.80;68.00;;;;;;5007586;28;20030;-64
2023/08/22 00:53:30;;;;;;;8.07;7.05;;;25.80;67.80;;;;;;5001561;28;20033;-66
2023/08/22 00:55:55;;;;;;;7.88;7.15;;;25.80;68.10;;;;;;5005420;28;20034;-60
2023/08/22 00:58:22;;;;;;;8.45;7.55;;;25.80;67.90;;;;;;5016748;28;20033;-63
2023/08/22 01:00:48;;;;;;;7.45;6.75;;;25.80;68.00;;;;;;5014078;28;21605;-64
2023/08/22 01:03:13;;;;;;;7.65;6.88;;;25.90;68.00;;;;;;5016108;28;20034;-65
2023/08/22 01:05:57;;;;;;;9.18;7.28;;;25.90;68.10;;;;;;5014196;28;20061;-65
2023/08/22 01:08:30;;;;;;;8.15;6.88;;;25.90;67.70;;;;;;4984151;28;20117;-65
2023/08/22 01:11:09;;;;;;;7.75;7.05;;;25.90;67.90;;;;;;5008718;28;20034;-59
2023/08/22 01:13:39;;;;;;;7.95;7.15;;;25.90;67.90;;;;;;5000895;28;20060;-64
2023/08/22 01:16:06;;;;;;;8.35;7.45;;;25.90;68.20;;;;;;5006569;28;20496;-64
2023/08/22 01:18:32;;;;;;;7.75;6.93;;;25.90;67.80;;;;;;5005742;28;20038;-65
2023/08/22 01:21:05;;;;;;;8.60;7.53;;;25.90;68.40;;;;;;4999037;28;20148;-57
2023/08/22 01:23:31;;;;;;;9.63;7.57;;;25.90;68.40;;;;;;5005678;28;20030;-58
2023/08/22 01:25:57;;;;;;;7.53;6.82;;;25.90;68.30;;;;;;5006306;28;20390;-64
2023/08/22 01:28:36;;;;;;;7.75;7.05;;;25.80;68.40;;;;;;5006250;28;20048;-63
2023/08/22 01:31:12;;;;;;;8.20;7.43;;;25.90;68.60;;;;;;4999494;28;20030;-66
2023/08/22 01:34:08;;;;;;;9.77;8.02;;;25.80;67.80;;;;;;4988414;28;20057;-66
2023/08/22 01:36:36;;;;;;;9.82;8.82;;;25.80;67.40;;;;;;5005332;28;20527;-65
2023/08/22 01:39:06;;;;;;;9.52;8.45;;;25.80;67.50;;;;;;5004586;28;20030;-65
2023/08/22 01:41:32;;;;;;;9.85;8.85;;;25.80;67.40;;;;;;4987463;28;20270;-62
2023/08/22 01:43:57;;;;;;;10.63;9.07;;;25.80;67.40;;;;;;5005554;28;20289;-65
2023/08/22 01:46:23;;;;;;;10.63;8.45;;;25.80;67.50;;;;;;5006326;28;20046;-60
2023/08/22 01:48:48;;;;;;;9.93;8.93;;;25.70;67.30;;;;;;5005806;28;20026;-60
2023/08/22 01:51:14;;;;;;;10.13;9.00;;;25.70;67.40;;;;;;5006228;28;20018;-60
2023/08/22 01:53:39;;;;;;;10.68;9.57;;;25.70;67.30;;;;;;5001309;28;20489;-64
2023/08/22 01:56:05;;;;;;;11.82;8.80;;;25.70;68.00;;;;;;5002509;28;20076;-66
2023/08/22 01:58:30;;;;;;;10.88;8.98;;;25.70;67.40;;;;;;5009134;28;20041;-62
2023/08/22 02:00:56;;;;;;;11.30;9.35;;;25.70;67.50;;;;;;5009761;28;20440;-66
2023/08/22 02:03:23;;;;;;;9.18;8.38;;;25.70;67.50;;;;;;5012392;28;20029;-58
2023/08/22 02:05:48;;;;;;;10.02;9.02;;;25.70;67.50;;;;;;5011639;28;20137;-65
2023/08/22 02:08:14;;;;;;;11.13;9.07;;;25.70;67.60;;;;;;5014571;28;20125;-60
2023/08/22 02:10:40;;;;;;;9.80;8.85;;;25.70;67.50;;;;;;5011686;28;20821;-65
2023/08/22 02:13:05;;;;;;;11.00;10.00;;;25.70;67.50;;;;;;5009408;28;20034;-65
2023/08/22 02:15:31;;;;;;;12.10;9.68;;;25.70;67.50;;;;;;5009423;28;20033;-65
2023/08/22 02:17:57;;;;;;;10.63;9.63;;;25.70;67.40;;;;;;5006443;28;20535;-61
2023/08/22 02:20:23;;;;;;;10.27;9.15;;;25.70;67.50;;;;;;5010595;28;20034;-66
2023/08/22 02:22:49;;;;;;;10.80;8.93;;;25.60;67.30;;;;;;5003628;28;20532;-64
2023/08/22 02:25:14;;;;;;;10.32;9.30;;;25.70;67.40;;;;;;5007895;28;20037;-65
2023/08/22 02:27:40;;;;;;;10.60;9.57;;;25.60;67.30;;;;;;5006127;28;20751;-64
2023/08/22 02:30:07;;;;;;;10.68;9.15;;;25.60;67.30;;;;;;5008785;28;20030;-65
2023/08/22 02:32:33;;;;;;;10.15;9.13;;;25.60;67.50;;;;;;5010503;28;20034;-64
2023/08/22 02:34:58;;;;;;;10.00;9.07;;;25.60;67.30;;;;;;5004153;28;20052;-64
2023/08/22 02:37:24;;;;;;;9.98;8.98;;;25.60;67.30;;;;;;5003587;28;20101;-64
2023/08/22 02:39:49;;;;;;;11.13;9.23;;;25.60;67.30;;;;;;5001685;28;20033;-66
2023/08/22 02:42:15;;;;;;;10.25;9.10;;;25.60;67.20;;;;;;5004425;28;20034;-64
2023/08/22 02:44:40;;;;;;;10.30;9.20;;;25.60;67.20;;;;;;5002785;28;20037;-64
2023/08/22 02:47:06;;;;;;;10.45;9.43;;;25.60;67.20;;;;;;5006051;28;20029;-57
2023/08/22 02:49:31;;;;;;;10.65;9.65;;;25.50;67.00;;;;;;5002304;28;20373;-64
2023/08/22 02:51:57;;;;;;;10.40;9.45;;;25.50;67.00;;;;;;4984531;28;20045;-65
2023/08/22 02:54:22;;;;;;;10.43;9.43;;;25.50;66.90;;;;;;5004055;28;20150;-64
2023/08/22 02:56:48;;;;;;;9.68;8.50;;;25.50;67.00;;;;;;5003509;28;20045;-61
2023/08/22 02:59:13;;;;;;;8.75;7.95;;;25.50;66.90;;;;;;5002896;28;20532;-57
2023/08/22 03:01:39;;;;;;;9.55;8.45;;;25.50;66.80;;;;;;5002932;28;20022;-65
2023/08/22 03:04:04;;;;;;;10.35;9.35;;;25.50;66.90;;;;;;5002047;28;20027;-63
2023/08/22 03:06:30;;;;;;;9.70;8.65;;;25.50;66.80;;;;;;5000042;28;20034;-60
2023/08/22 03:08:56;;;;;;;10.27;9.35;;;25.50;66.90;;;;;;5000828;28;20038;-61
2023/08/22 03:11:21;;;;;;;10.65;9.65;;;25.50;66.80;;;;;;4999412;28;20110;-63
2023/08/22 03:13:47;;;;;;;10.20;9.10;;;25.40;66.70;;;;;;4999882;28;20447;-66
2023/08/22 03:16:13;;;;;;;10.65;9.55;;;25.40;66.80;;;;;;5002604;28;20081;-64
2023/08/22 03:18:38;;;;;;;9.93;9.00;;;25.40;66.80;;;;;;5003758;28;20449;-66
2023/08/22 03:21:04;;;;;;;9.52;8.65;;;25.40;66.80;;;;;;5008126;28;20041;-59
2023/08/22 03:23:30;;;;;;;10.50;9.40;;;25.40;67.40;;;;;;5005217;28;20049;-66
2023/08/22 03:25:57;;;;;;;10.13;8.75;;;25.40;66.80;;;;;;4986839;28;20026;-65
2023/08/22 03:28:23;;;;;;;9.73;8.82;;;25.40;66.80;;;;;;5010600;28;20046;-66
2023/08/22 03:30:54;;;;;;;10.45;9.20;;;25.40;66.70;;;;;;5010733;28;20409;-65
2023/08/22 03:33:20;;;;;;;10.93;9.93;;;25.30;66.60;;;;;;5009157;28;20524;-64
2023/08/22 03:35:45;;;;;;;10.15;9.15;;;25.40;66.80;;;;;;5011391;28;20030;-65
2023/08/22 03:38:11;;;;;;;10.13;9.13;;;25.30;66.80;;;;;;5015244;28;20041;-65
2023/08/22 03:40:36;;;;;;;14.35;9.38;;;25.30;66.80;;;;;;5011030;28;20194;-64
2023/08/22 03:43:02;;;;;;;10.35;9.20;;;25.30;66.70;;;;;;5013075;28;20096;-64
2023/08/22 03:45:27;;;;;;;9.98;9.05;;;25.30;66.70;;;;;;5020219;28;20115;-65
2023/08/22 03:47:53;;;;;;;9.60;8.75;;;25.30;66.80;;;;;;5009105;28;20128;-64
2023/08/22 03:50:19;;;;;;;10.68;9.70;;;25.30;66.70;;;;;;5008464;28;20120;-64
2023/08/22 03:52:44;;;;;;;10.88;9.75;;;25.30;66.60;;;;;;5004449;28;20053;-64
2023/08/22 03:55:10;;;;;;;10.18;9.18;;;25.30;66.60;;;;;;5008263;28;20401;-64
2023/08/22 03:57:35;;;;;;;9.68;8.77;;;25.30;66.50;;;;;;5007793;28;20040;-65
2023/08/22 04:00:01;;;;;;;9.88;8.77;;;25.30;66.50;;;;;;5009290;28;20077;-64
2023/08/22 04:02:26;;;;;;;10.48;9.15;;;25.30;66.50;;;;;;5008276;28;20514;-66
2023/08/22 04:04:54;;;;;;;9.63;8.73;;;25.30;66.60;;;;;;5004138;28;20026;-64
2023/08/22 04:07:20;;;;;;;9.82;8.82;;;25.30;66.60;;;;;;5010631;28;20029;-64
2023/08/22 04:09:45;;;;;;;10.20;8.45;;;25.30;66.60;;;;;;5000879;28;20040;-63
2023/08/22 04:12:10;;;;;;;10.07;9.07;;;25.20;66.60;;;;;;5013564;28;20103;-63
2023/08/22 04:14:36;;;;;;;10.63;9.52;;;25.30;66.60;;;;;;5013401;28;20035;-64
2023/08/22 04:17:02;;;;;;;10.23;9.23;;;25.20;66.60;;;;;;5012193;28;20030;-63
2023/08/22 04:19:28;;;;;;;9.27;8.38;;;25.20;66.60;;;;;;5011052;28;20125;-65
2023/08/22 04:21:53;;;;;;;10.70;9.57;;;25.20;66.70;;;;;;5006893;28;20105;-65
2023/08/22 04:24:19;;;;;;;9.77;8.80;;;25.20;66.60;;;;;;5007406;28;20492;-65
2023/08/22 04:26:44;;;;;;;10.38;9.35;;;25.20;66.70;;;;;;5007435;28;20037;-64
2023/08/22 04:29:10;;;;;;;9.93;8.93;;;25.20;66.80;;;;;;5008950;28;20040;-64
2023/08/22 04:31:35;;;;;;;10.02;9.05;;;25.20;66.80;;;;;;5010595;28;20034;-66
2023/08/22 04:34:01;;;;;;;11.13;10.02;;;25.20;66.80;;;;;;4997819;28;20030;-64
2023/08/22 04:36:27;;;;;;;9.57;8.65;;;25.20;66.80;;;;;;5010742;28;20063;-63
2023/08/22 04:38:52;;;;;;;9.80;8.85;;;25.20;66.90;;;;;;5009148;28;20429;-65
2023/08/22 04:41:18;;;;;;;9.80;8.80;;;25.10;66.80;;;;;;5011372;28;20037;-65
2023/08/22 04:43:43;;;;;;;9.48;8.57;;;25.20;66.90;;;;;;5008025;28;20052;-65
2023/08/22 04:46:09;;;;;;;9.23;8.40;;;25.20;66.90;;;;;;5010513;28;20034;-64
2023/08/22 04:48:34;;;;;;;9.63;8.63;;;25.20;66.90;;;;;;5011899;28;20030;-64
2023/08/22 04:51:00;;;;;;;9.48;8.65;;;25.20;67.30;;;;;;5009367;28;20074;-65
2023/08/22 04:53:26;;;;;;;9.80;8.80;;;25.20;67.00;;;;;;5006120;28;20500;-64
2023/08/22 04:55:51;;;;;;;9.63;8.73;;;25.30;67.10;;;;;;5007143;28;20030;-64
2023/08/22 04:58:17;;;;;;;10.05;9.15;;;25.20;67.00;;;;;;5008414;28;20044;-64
2023/08/22 05:00:42;;;;;;;9.98;8.90;;;25.30;67.10;;;;;;5013678;28;20662;-66
2023/08/22 05:03:08;;;;;;;8.50;7.70;;;25.30;67.20;;;;;;5008051;28;20141;-65
2023/08/22 05:05:33;;;;;;;12.60;9.35;;;25.20;67.20;;;;;;5009771;28;20378;-66
2023/08/22 05:08:00;;;;;;;11.45;9.00;;;25.20;67.40;;;;;;4998713;28;20109;-66
2023/08/22 05:10:25;;;;;;;12.75;8.57;;;25.10;67.30;;;;;;5008785;28;20052;-65
2023/08/22 05:12:51;;;;;;;14.60;9.15;;;25.10;67.30;;;;;;5009382;28;20037;-66
2023/08/22 05:15:16;;;;;;;12.43;8.77;;;25.10;67.50;;;;;;5013980;28;20033;-62
2023/08/22 05:17:42;;;;;;;12.45;8.82;;;25.10;67.60;;;;;;5012336;28;20038;-65
2023/08/22 05:20:12;;;;;;;10.82;8.85;;;25.10;67.80;;;;;;5004835;28;20504;-64
2023/08/22 05:22:38;;;;;;;8.93;8.13;;;25.10;67.90;;;;;;5004359;28;20033;-64
2023/08/22 05:25:05;;;;;;;10.73;9.68;;;25.10;68.00;;;;;;5007559;28;20038;-65
2023/08/22 05:27:31;;;;;;;9.30;8.40;;;25.10;67.90;;;;;;5005522;28;20121;-66
2023/08/22 05:29:56;;;;;;;10.63;8.93;;;25.10;68.00;;;;;;5000183;28;20137;-64
2023/08/22 05:32:22;;;;;;;10.18;8.20;;;25.00;69.20;;;;;;5008481;28;20026;-65
2023/08/22 05:34:47;;;;;;;8.55;7.72;;;25.10;70.40;;;;;;5004363;28;21856;-63
2023/08/22 05:37:13;;;;;;;11.07;8.73;;;25.10;70.20;;;;;;5007656;28;20479;-65
2023/08/22 05:39:38;;;;;;;9.63;8.65;;;25.10;70.00;;;;;;5006517;28;20038;-64
2023/08/22 05:42:04;;;;;;;9.35;8.40;;;25.10;70.20;;;;;;5005511;28;20112;-63
2023/08/22 05:44:32;;;;;;;9.43;8.55;;;25.10;70.40;;;;;;5012400;28;20134;-61
2023/08/22 05:46:57;;;;;;;9.25;8.38;;;25.10;70.50;;;;;;5005703;28;20426;-64
2023/08/22 05:49:23;;;;;;;9.48;8.60;;;25.10;70.60;;;;;;5006206;28;20036;-62
2023/08/22 05:51:49;;;;;;;13.57;8.50;;;25.10;70.80;;;;;;5005748;28;20106;-63
2023/08/22 05:54:14;;;;;;;8.68;7.70;;;25.10;70.90;;;;;;5005020;28;20030;-65
2023/08/22 05:56:40;;;;;;;8.98;8.07;;;25.20;71.10;;;;;;5004781;28;20026;-64
2023/08/22 05:59:05;;;;;;;9.68;8.45;;;25.20;71.30;;;;;;5003809;28;20103;-64
2023/08/22 06:01:31;;;;;;;8.68;7.78;;;25.20;71.20;;;;;;5002068;28;20124;-60
2023/08/22 06:03:57;;;;;;;9.90;8.90;;;25.30;71.00;;;;;;5004917;28;20096;-64
2023/08/22 06:06:22;;;;;;;8.20;7.22;;;25.30;70.90;;;;;;5006613;28;20076;-64
2023/08/22 06:08:48;;;;;;;9.32;8.20;;;25.30;70.60;;;;;;4972336;28;1016220;-64
2023/08/22 06:11:13;;;;;;;9.30;8.23;;;25.30;70.40;;;;;;5008314;28;20074;-65
2023/08/22 06:13:39;;;;;;;9.80;8.63;;;25.30;70.30;;;;;;5011230;28;20073;-64
2023/08/22 06:16:04;;;;;;;9.40;8.32;;;25.30;70.20;;;;;;5010012;28;20115;-63
2023/08/22 06:18:30;;;;;;;9.23;7.90;;;25.30;70.10;;;;;;5006132;28;20048;-64
2023/08/22 06:21:02;;;;;;;8.43;7.63;;;25.30;70.30;;;;;;4998642;28;20034;-64
2023/08/22 06:23:28;;;;;;;9.45;8.18;;;25.30;70.30;;;;;;4980777;28;20034;-63
2023/08/22 06:25:54;;;;;;;8.40;7.57;;;25.30;70.40;;;;;;5002172;28;20524;-65
2023/08/22 06:28:19;;;;;;;8.38;7.28;;;25.30;71.00;;;;;;4998692;28;20049;-66
2023/08/22 06:30:45;;;;;;;9.40;7.68;;;25.30;70.40;;;;;;5005765;28;20033;-63
2023/08/22 06:33:10;;;;;;;8.77;7.95;;;25.30;70.30;;;;;;4985305;28;20098;-65
2023/08/22 06:35:36;;;;;;;9.13;8.23;;;25.40;70.20;;;;;;4974730;28;20034;-63
2023/08/22 06:38:01;;;;;;;9.48;8.48;;;25.30;70.70;;;;;;4999461;28;20124;-65
2023/08/22 06:40:27;;;;;;;8.85;7.22;;;25.30;69.90;;;;;;5001839;28;20271;-64
2023/08/22 06:42:52;;;;;;;8.63;7.82;;;25.30;69.80;;;;;;5002286;28;20077;-63
2023/08/22 06:45:18;;;;;;;8.18;7.40;;;25.30;69.50;;;;;;5001239;28;20690;-64
2023/08/22 06:47:43;;;;;;;8.77;7.88;;;25.40;69.40;;;;;;4995610;28;20046;-64
2023/08/22 06:50:09;;;;;;;9.93;7.90;;;25.30;69.30;;;;;;4997050;28;20497;-63
2023/08/22 06:52:35;;;;;;;9.20;7.53;;;25.40;69.40;;;;;;4999660;28;20113;-63
2023/08/22 06:55:01;;;;;;;10.45;7.97;;;25.40;69.40;;;;;;5000861;28;20127;-64
2023/08/22 06:57:27;;;;;;;7.75;6.95;;;25.40;69.40;;;;;;5008310;28;20061;-62
2023/08/22 06:59:52;;;;;;;9.70;8.10;;;25.30;69.40;;;;;;5009803;28;20403;-64
2023/08/22 07:02:18;;;;;;;8.82;8.02;;;25.30;69.50;;;;;;5012997;28;20034;-64
2023/08/22 07:04:43;;;;;;;8.57;7.78;;;25.40;69.30;;;;;;5010207;28;20089;-64
2023/08/22 07:07:09;;;;;;;8.82;7.80;;;25.40;69.40;;;;;;5009088;28;20134;-63
2023/08/22 07:09:34;;;;;;;8.48;7.65;;;25.40;69.40;;;;;;5010044;28;20049;-65
2023/08/22 07:12:00;;;;;;;9.40;7.50;;;25.40;69.20;;;;;;5008425;28;20025;-62
2023/08/22 07:14:26;;;;;;;8.38;7.47;;;25.50;69.10;;;;;;5008986;28;20501;-65
2023/08/22 07:16:51;;;;;;;8.80;7.75;;;25.50;69.00;;;;;;5001631;28;20513;-65
2023/08/22 07:19:17;;;;;;;9.00;8.10;;;25.50;69.30;;;;;;4999511;28;20050;-64
2023/08/22 07:21:43;;;;;;;8.98;7.57;;;25.50;69.20;;;;;;4998165;28;20026;-62
2023/08/22 07:24:08;;;;;;;8.18;7.47;;;25.50;69.10;;;;;;5005759;28;20374;-65
2023/08/22 07:26:34;;;;;;;11.63;7.75;;;25.50;69.30;;;;;;5002126;28;20023;-64
2023/08/22 07:28:59;;;;;;;9.43;8.00;;;25.50;69.30;;;;;;5002958;28;20019;-66
2023/08/22 07:31:25;;;;;;;7.88;7.07;;;25.50;69.20;;;;;;4998343;28;20034;-64
2023/08/22 07:33:50;;;;;;;8.90;7.55;;;25.50;69.00;;;;;;4994965;28;20030;-64
2023/08/22 07:36:21;;;;;;;11.15;7.65;;;25.50;69.10;;;;;;4997088;28;20030;-65
2023/08/22 07:38:47;;;;;;;9.00;8.07;;;25.50;69.10;;;;;;5001048;28;20042;-64
2023/08/22 07:41:12;;;;;;;8.20;7.40;;;25.50;69.10;;;;;;4998477;28;20076;-64
2023/08/22 07:43:38;;;;;;;11.57;7.55;;;25.50;69.10;;;;;;4998999;28;20034;-64
2023/08/22 07:46:03;;;;;;;11.18;7.75;;;25.50;69.00;;;;;;5004418;28;20038;-62
2023/08/22 07:48:29;;;;;;;10.00;7.72;;;25.50;69.00;;;;;;5006692;28;20052;-64
2023/08/22 07:50:55;;;;;;;8.43;7.35;;;25.50;68.90;;;;;;5007734;28;20093;-65
2023/08/22 07:53:21;;;;;;;8.82;8.02;;;25.50;69.10;;;;;;5007838;28;20104;-64
2023/08/22 07:55:47;;;;;;;7.85;7.05;;;25.50;69.00;;;;;;5001162;28;20021;-64
2023/08/22 07:58:13;;;;;;;7.85;7.10;;;25.50;68.90;;;;;;5011820;28;20263;-64
2023/08/22 08:00:38;;;;;;;9.63;7.85;;;25.50;68.70;;;;;;5008522;28;20029;-65
2023/08/22 08:03:04;;;;;;;9.43;8.45;;;25.50;68.80;;;;;;5012300;28;20080;-63
2023/08/22 08:05:30;;;;;;;9.57;7.47;;;25.50;68.70;;;;;;4990735;28;20025;-64
2023/08/22 08:07:55;;;;;;;9.77;7.22;;;25.50;68.80;;;;;;5011823;28;20049;-64
2023/08/22 08:10:21;;;;;;;8.55;7.53;;;25.50;68.70;;;;;;5005677;28;20045;-65
2023/08/22 08:12:46;;;;;;;9.20;7.03;;;25.60;68.70;;;;;;5001747;28;20057;-64
2023/08/22 08:15:12;;;;;;;9.75;6.93;;;25.50;68.50;;;;;;4999496;28;20105;-63
2023/08/22 08:17:37;;;;;;;7.53;6.82;;;25.50;68.40;;;;;;5007192;28;20201;-63
2023/08/22 08:20:04;;;;;;;7.28;6.50;;;25.50;68.20;;;;;;4999130;28;20497;-63
2023/08/22 08:22:30;;;;;;;9.45;6.25;;;25.60;68.00;;;;;;5001551;28;20108;-64
2023/08/22 08:24:56;;;;;;;7.57;5.97;;;25.50;67.70;;;;;;5003235;28;20026;-63
2023/08/22 08:27:21;;;;;;;6.15;5.63;;;25.50;67.80;;;;;;5002488;28;20038;-64
2023/08/22 08:29:47;;;;;;;7.47;5.47;;;25.50;67.50;;;;;;5004930;28;20030;-62
2023/08/22 08:32:12;;;;;;;6.25;5.50;;;25.50;67.60;;;;;;4993782;28;20545;-64
2023/08/22 08:34:38;;;;;;;6.20;5.35;;;25.50;67.30;;;;;;4987510;28;20065;-65
2023/08/22 08:37:04;;;;;;;6.00;5.40;;;25.50;67.40;;;;;;5002785;28;20038;-65
2023/08/22 08:39:29;;;;;;;9.32;5.78;;;25.50;67.20;;;;;;5005924;28;20112;-65
2023/08/22 08:42:12;;;;;;;6.82;5.78;;;25.50;67.40;;;;;;4996387;28;20029;-64
2023/08/22 08:44:39;;;;;;;8.50;6.03;;;25.50;68.00;;;;;;4994323;28;20026;-63
2023/08/22 08:47:06;;;;;;;5.97;5.47;;;25.50;67.60;;;;;;4999317;28;20042;-65
2023/08/22 08:49:34;;;;;;;6.55;5.80;;;25.50;67.50;;;;;;4999941;28;20065;-64
2023/08/22 08:52:05;;;;;;;7.13;5.47;;;25.50;67.50;;;;;;5006696;28;20037;-66
2023/08/22 08:54:32;;;;;;;6.30;5.65;;;25.50;67.60;;;;;;4998681;28;20257;-65
2023/08/22 08:56:59;;;;;;;5.80;5.22;;;25.50;67.50;;;;;;5005018;28;20116;-64
2023/08/22 08:59:24;;;;;;;8.93;5.28;;;25.60;67.70;;;;;;5008784;28;20373;-64
2023/08/22 09:01:51;;;;;;;8.15;6.03;;;25.60;67.50;;;;;;5005676;28;20026;-62
2023/08/22 09:04:20;;;;;;;6.82;5.05;;;25.60;67.10;;;;;;5012093;28;20077;-64
2023/08/22 09:06:47;;;;;;;7.18;5.30;;;25.60;67.20;;;;;;5009656;28;20264;-64
2023/08/22 09:09:13;;;;;;;5.78;5.15;;;25.60;67.90;;;;;;5007816;28;20042;-65
2023/08/22 09:11:47;;;;;;;8.02;4.95;;;25.60;67.30;;;;;;4990464;28;20022;-64
2023/08/22 09:14:20;;;;;;;7.22;5.63;;;25.60;67.40;;;;;;4992553;28;20157;-63
2023/08/22 09:16:46;;;;;;;6.40;5.72;;;25.70;67.40;;;;;;5002860;28;20040;-65
2023/08/22 09:19:12;;;;;;;6.53;4.57;;;25.60;67.90;;;;;;4996868;28;20033;-64
2023/08/22 09:21:37;;;;;;;4.93;4.45;;;25.60;67.30;;;;;;4984894;28;20034;-65
2023/08/22 09:24:10;;;;;;;5.75;4.43;;;25.60;67.00;;;;;;5006321;28;20049;-65
2023/08/22 09:26:37;;;;;;;5.57;4.32;;;25.60;67.10;;;;;;5005867;28;20238;-65
2023/08/22 09:29:06;;;;;;;5.75;3.78;;;25.70;66.90;;;;;;5001797;28;20056;-64
2023/08/22 09:31:34;;;;;;;5.55;4.30;;;25.70;66.60;;;;;;4993187;28;20117;-64
2023/08/22 09:34:09;;;;;;;5.35;4.80;;;25.70;66.90;;;;;;4997228;28;20031;-65
2023/08/22 09:36:42;;;;;;;;;;;25.70;67.10;;;;;;5004537;28;20038;-66
2023/08/22 09:39:11;;;;;;;7.18;5.65;;;25.70;67.40;;;;;;4990423;28;19914;-63
2023/08/22 09:41:38;;;;;;;6.13;5.40;;;25.70;67.40;;;;;;4992578;28;20186;-65
2023/08/22 09:44:06;;;;;;;6.75;6.05;;;25.70;67.40;;;;;;4994962;28;20026;-66
2023/08/22 09:46:31;;;;;;;10.60;6.85;;;25.70;67.60;;;;;;4991103;28;20030;-63
2023/08/22 09:49:00;;;;;;;8.80;6.53;;;25.70;68.00;;;;;;4996398;28;20267;-66
2023/08/22 09:51:25;;;;;;;9.60;8.07;;;25.70;68.40;;;;;;4997058;28;20031;-66
2023/08/22 09:53:59;;;;;;;8.70;6.72;;;25.70;68.50;;;;;;5006697;28;20113;-65
2023/08/22 09:56:26;;;;;;;7.78;6.95;;;25.70;68.40;;;;;;5003185;28;20041;-65
2023/08/22 09:58:55;;;;;;;7.70;6.88;;;25.70;68.50;;;;;;5012450;28;20088;-64
2023/08/22 10:01:21;;;;;;;7.03;6.38;;;25.70;68.40;;;;;;5007798;28;20152;-65
2023/08/22 10:03:49;;;;;;;8.35;6.90;;;25.70;68.30;;;;;;5003350;28;20132;-62
2023/08/22 10:06:15;;;;;;;9.85;7.45;;;25.70;68.30;;;;;;5003225;28;20049;-64
2023/08/22 10:08:42;;;;;;;7.97;7.10;;;25.70;68.40;;;;;;5004084;28;20536;-65
2023/08/22 10:11:11;;;;;;;8.52;6.63;;;25.70;68.40;;;;;;5007725;28;20451;-62
2023/08/22 10:13:38;;;;;;;8.02;7.10;;;25.70;68.30;;;;;;5007159;28;20516;-66
2023/08/22 10:16:04;;;;;;;9.18;6.85;;;25.80;68.30;;;;;;5011679;28;20048;-64
2023/08/22 10:18:30;;;;;;;7.90;6.75;;;25.70;68.20;;;;;;5009753;28;20421;-65
2023/08/22 10:20:56;;;;;;;12.50;7.13;;;25.80;68.30;;;;;;5007403;28;20088;-65
2023/08/22 10:23:52;;;;;;;9.25;6.57;;;25.80;68.50;;;;;;5009351;28;20029;-65
2023/08/22 10:26:25;;;;;;;7.88;7.07;;;25.80;68.30;;;;;;5000118;28;20034;-65
2023/08/22 10:29:13;;;;;;;7.18;6.47;;;25.80;68.30;;;;;;5004308;28;20049;-63
2023/08/22 10:32:00;;;;;;;10.02;6.68;;;25.80;68.20;;;;;;5004831;28;20436;-65
2023/08/22 10:34:46;;;;;;;9.15;7.28;;;25.80;68.30;;;;;;5000189;28;20511;-64
2023/08/22 10:37:12;;;;;;;11.35;7.47;;;25.70;68.20;;;;;;4952984;28;20092;-64
2023/08/22 10:39:42;;;;;;;10.32;7.00;;;25.80;68.30;;;;;;5007125;28;20029;-66
2023/08/22 10:42:13;;;;;;;8.05;7.25;;;25.80;68.40;;;;;;5007358;28;20523;-65
2023/08/22 10:44:42;;;;;;;9.02;7.50;;;25.80;68.30;;;;;;5010651;28;20052;-65
2023/08/22 10:47:17;;;;;;;9.27;6.88;;;25.80;68.50;;;;;;5011084;28;20209;-65
2023/08/22 10:49:43;;;;;;;8.20;6.90;;;25.80;68.50;;;;;;5007828;28;20038;-64
2023/08/22 10:52:10;;;;;;;7.78;6.72;;;25.80;68.50;;;;;;5007969;28;20025;-64
2023/08/22 10:54:57;;;;;;;7.88;7.18;;;25.90;68.50;;;;;;5006469;28;20382;-65
2023/08/22 10:57:23;;;;;;;9.30;6.80;;;25.90;68.80;;;;;;5001640;28;20026;-62
2023/08/22 10:59:55;;;;;;;8.80;7.28;;;25.80;68.60;;;;;;5004120;28;20042;-65
2023/08/22 11:02:22;;;;;;;9.63;7.03;;;25.90;68.60;;;;;;5009162;28;20266;-65
2023/08/22 11:04:49;;;;;;;7.65;6.82;;;25.90;68.80;;;;;;5001195;28;20397;-64
2023/08/22 11:07:15;;;;;;;7.70;6.72;;;25.90;68.60;;;;;;5007758;28;20040;-66
2023/08/22 11:09:41;;;;;;;9.52;6.75;;;25.90;68.70;;;;;;5002668;28;20451;-64
2023/08/22 11:12:22;;;;;;;7.07;6.35;;;25.90;68.70;;;;;;5008641;28;20049;-65
2023/08/22 11:14:50;;;;;;;7.60;6.13;;;25.90;68.60;;;;;;5011411;28;20121;-63
2023/08/22 11:17:16;;;;;;;6.80;6.20;;;25.90;68.50;;;;;;5013479;28;20452;-65
2023/08/22 11:19:43;;;;;;;6.80;6.07;;;25.90;68.50;;;;;;5010336;28;20547;-64
2023/08/22 11:22:09;;;;;;;6.78;6.03;;;25.90;68.40;;;;;;5011827;28;20037;-62
2023/08/22 11:24:35;;;;;;;8.68;6.10;;;25.90;68.40;;;;;;5008698;28;20722;-66
2023/08/22 11:27:05;;;;;;;7.80;5.75;;;25.90;68.40;;;;;;5012890;28;20291;-63
2023/08/22 11:29:43;;;;;;;8.07;6.20;;;25.90;68.60;;;;;;5010266;28;20516;-64
2023/08/22 11:32:27;;;;;;;7.63;6.25;;;26.00;68.60;;;;;;5009520;28;20033;-64
2023/08/22 11:34:55;;;;;;;6.22;5.63;;;26.00;68.50;;;;;;5003520;28;20021;-64
2023/08/22 11:37:21;;;;;;;6.78;5.28;;;26.00;68.40;;;;;;5006800;28;20034;-65
2023/08/22 11:39:50;;;;;;;7.78;5.95;;;26.00;68.50;;;;;;5009551;28;20030;-64
2023/08/22 11:42:17;;;;;;;7.40;6.68;;;26.00;68.50;;;;;;5015537;28;20092;-64
2023/08/22 11:44:53;;;;;;;7.93;5.55;;;26.00;68.50;;;;;;5015730;28;20029;-66
2023/08/22 11:47:19;;;;;;;7.05;5.57;;;26.00;68.60;;;;;;5011181;28;20274;-64
2023/08/22 11:49:49;;;;;;;9.07;5.25;;;26.00;68.60;;;;;;4996080;28;20034;-65
2023/08/22 11:52:15;;;;;;;5.78;5.10;;;26.00;68.60;;;;;;5012376;28;20037;-64
2023/08/22 11:54:44;;;;;;;7.05;5.57;;;26.00;68.60;;;;;;5008731;28;20030;-63
2023/08/22 11:57:11;;;;;;;6.57;4.75;;;26.00;68.50;;;;;;5015859;28;20605;-64
2023/08/22 11:59:40;;;;;;;9.48;5.93;;;26.00;68.50;;;;;;4998288;28;20038;-64
2023/08/22 12:02:06;;;;;;;10.52;6.22;;;26.00;68.70;;;;;;5009705;28;20120;-65
2023/08/22 12:04:42;;;;;;;7.97;5.00;;;26.00;69.10;;;;;;5008093;28;20162;-64
2023/08/22 12:07:08;;;;;;;7.75;5.30;;;26.00;68.50;;;;;;5011994;28;20529;-65
2023/08/22 12:09:33;;;;;;;6.75;4.90;;;26.00;68.40;;;;;;5014275;28;20132;-65
2023/08/22 12:12:13;;;;;;;8.65;5.20;;;26.00;68.40;;;;;;5013951;28;20501;-63
2023/08/22 12:14:39;;;;;;;6.03;4.80;;;26.00;68.50;;;;;;5009272;28;20539;-64
2023/08/22 12:17:05;;;;;;;10.95;5.53;;;26.00;68.30;;;;;;4969024;28;20042;-64
2023/08/22 12:19:30;;;;;;;8.07;5.43;;;26.00;68.10;;;;;;5015313;28;20029;-64
2023/08/22 12:21:57;;;;;;;6.93;5.32;;;26.00;68.00;;;;;;5011217;28;20730;-64
2023/08/22 12:24:23;;;;;;;5.18;4.68;;;26.00;68.10;;;;;;5012404;28;20028;-65
2023/08/22 12:26:48;;;;;;;6.07;4.63;;;26.00;68.00;;;;;;5009135;28;20125;-64
2023/08/22 12:29:14;;;;;;;8.68;5.50;;;26.00;67.90;;;;;;5010807;28;20026;-64
2023/08/22 12:31:39;;;;;;;7.68;5.13;;;26.00;68.00;;;;;;5008023;28;20037;-64
2023/08/22 12:34:05;;;;;;;6.57;4.97;;;26.00;67.70;;;;;;5011282;28;20029;-64
2023/08/22 12:36:30;;;;;;;7.05;4.90;;;26.00;67.80;;;;;;5010717;28;20029;-64
2023/08/22 12:38:56;;;;;;;6.25;5.13;;;26.00;67.90;;;;;;5012728;28;20049;-64
2023/08/22 12:41:21;;;;;;;5.38;4.78;;;26.00;67.50;;;;;;5013957;28;20496;-65
2023/08/22 12:43:47;;;;;;;5.40;4.63;;;26.00;67.50;;;;;;5009347;28;20037;-65